sensor_id;sensor_type;location;lat;lon;timestamp;P1;durP1;ratioP1;P2;durP2;ratioP2
53401;SDS011;39295;45.534;20.034;2023-03-14T00:01:35;22.33;;;10.32;;
53401;SDS011;39295;45.534;20.034;2023-03-14T00:04:03;19.35;;;10.05;;
53401;SDS011;39295;45.534;20.034;2023-03-14T00:06:30;19.65;;;10.43;;
53401;SDS011;39295;45.534;20.034;2023-03-14T00:08:56;18.20;;;9.77;;
53401;SDS011;39295;45.534;20.034;2023-03-14T00:11:22;15.65;;;9.35;;
53401;SDS011;39295;45.534;20.034;2023-03-14T00:13:49;24.58;;;14.05;;
53401;SDS011;39295;45.534;20.034;2023-03-14T00:16:16;20.52;;;9.48;;
53401;SDS011;39295;45.534;20.034;2023-03-14T00:18:43;16.80;;;9.60;;
53401;SDS011;39295;45.534;20.034;2023-03-14T00:23:54;17.08;;;9.10;;
53401;SDS011;39295;45.534;20.034;2023-03-14T00:26:20;19.10;;;9.10;;
53401;SDS011;39295;45.534;20.034;2023-03-14T00:28:47;16.27;;;8.80;;
53401;SDS011;39295;45.534;20.034;2023-03-14T00:31:16;14.57;;;8.90;;
53401;SDS011;39295;45.534;20.034;2023-03-14T00:33:42;15.95;;;8.73;;
53401;SDS011;39295;45.534;20.034;2023-03-14T00:42:29;13.73;;;7.40;;
53401;SDS011;39295;45.534;20.034;2023-03-14T00:44:56;13.20;;;7.60;;
53401;SDS011;39295;45.534;20.034;2023-03-14T00:47:23;15.48;;;8.00;;
53401;SDS011;39295;45.534;20.034;2023-03-14T00:49:49;10.90;;;7.05;;
53401;SDS011;39295;45.534;20.034;2023-03-14T00:52:15;16.30;;;8.48;;
53401;SDS011;39295;45.534;20.034;2023-03-14T00:54:42;13.75;;;8.30;;
53401;SDS011;39295;45.534;20.034;2023-03-14T00:57:08;13.10;;;8.25;;
53401;SDS011;39295;45.534;20.034;2023-03-14T00:59:34;13.38;;;8.20;;
53401;SDS011;39295;45.534;20.034;2023-03-14T01:02:00;13.60;;;7.97;;
53401;SDS011;39295;45.534;20.034;2023-03-14T01:04:26;15.93;;;8.85;;
53401;SDS011;39295;45.534;20.034;2023-03-14T01:06:52;11.98;;;7.55;;
53401;SDS011;39295;45.534;20.034;2023-03-14T01:09:18;12.90;;;8.40;;
53401;SDS011;39295;45.534;20.034;2023-03-14T01:11:44;13.93;;;8.00;;
53401;SDS011;39295;45.534;20.034;2023-03-14T01:14:11;13.13;;;7.65;;
53401;SDS011;39295;45.534;20.034;2023-03-14T01:16:38;12.23;;;7.50;;
53401;SDS011;39295;45.534;20.034;2023-03-14T01:19:04;13.20;;;7.55;;
53401;SDS011;39295;45.534;20.034;2023-03-14T01:21:31;11.15;;;7.25;;
53401;SDS011;39295;45.534;20.034;2023-03-14T01:23:58;11.57;;;7.35;;
53401;SDS011;39295;45.534;20.034;2023-03-14T01:26:25;14.30;;;7.88;;
53401;SDS011;39295;45.534;20.034;2023-03-14T01:28:53;14.48;;;8.73;;
53401;SDS011;39295;45.534;20.034;2023-03-14T01:31:19;16.17;;;10.02;;
53401;SDS011;39295;45.534;20.034;2023-03-14T01:33:46;12.63;;;8.00;;
53401;SDS011;39295;45.534;20.034;2023-03-14T01:36:12;11.90;;;7.57;;
53401;SDS011;39295;45.534;20.034;2023-03-14T01:38:38;12.55;;;7.57;;
53401;SDS011;39295;45.534;20.034;2023-03-14T01:41:05;14.70;;;7.65;;
53401;SDS011;39295;45.534;20.034;2023-03-14T01:43:32;14.52;;;7.90;;
53401;SDS011;39295;45.534;20.034;2023-03-14T01:48:27;15.75;;;8.35;;
53401;SDS011;39295;45.534;20.034;2023-03-14T01:53:45;13.18;;;7.40;;
53401;SDS011;39295;45.534;20.034;2023-03-14T01:56:12;13.60;;;7.40;;
53401;SDS011;39295;45.534;20.034;2023-03-14T01:58:39;13.73;;;8.32;;
53401;SDS011;39295;45.534;20.034;2023-03-14T02:01:07;16.42;;;8.25;;
53401;SDS011;39295;45.534;20.034;2023-03-14T02:03:36;14.27;;;7.60;;
53401;SDS011;39295;45.534;20.034;2023-03-14T02:06:04;11.15;;;6.95;;
53401;SDS011;39295;45.534;20.034;2023-03-14T02:08:32;14.10;;;7.80;;
53401;SDS011;39295;45.534;20.034;2023-03-14T02:10:59;14.50;;;7.63;;
53401;SDS011;39295;45.534;20.034;2023-03-14T02:13:25;13.85;;;8.48;;
53401;SDS011;39295;45.534;20.034;2023-03-14T02:15:51;15.93;;;8.32;;
53401;SDS011;39295;45.534;20.034;2023-03-14T02:18:17;15.13;;;7.70;;
53401;SDS011;39295;45.534;20.034;2023-03-14T02:29:33;14.00;;;8.20;;
53401;SDS011;39295;45.534;20.034;2023-03-14T02:32:01;14.15;;;8.48;;
53401;SDS011;39295;45.534;20.034;2023-03-14T02:34:28;15.05;;;8.15;;
53401;SDS011;39295;45.534;20.034;2023-03-14T02:40:00;12.43;;;7.20;;
53401;SDS011;39295;45.534;20.034;2023-03-14T02:42:26;14.57;;;7.80;;
53401;SDS011;39295;45.534;20.034;2023-03-14T02:44:59;11.05;;;7.28;;
53401;SDS011;39295;45.534;20.034;2023-03-14T02:47:28;16.30;;;7.38;;
53401;SDS011;39295;45.534;20.034;2023-03-14T02:49:56;11.70;;;7.20;;
53401;SDS011;39295;45.534;20.034;2023-03-14T02:52:24;11.07;;;6.57;;
53401;SDS011;39295;45.534;20.034;2023-03-14T02:54:50;10.82;;;6.75;;
53401;SDS011;39295;45.534;20.034;2023-03-14T02:57:16;11.40;;;6.78;;
53401;SDS011;39295;45.534;20.034;2023-03-14T02:59:42;12.52;;;7.30;;
53401;SDS011;39295;45.534;20.034;2023-03-14T03:02:08;12.98;;;6.93;;
53401;SDS011;39295;45.534;20.034;2023-03-14T03:04:34;13.13;;;6.60;;
53401;SDS011;39295;45.534;20.034;2023-03-14T03:09:46;12.52;;;6.70;;
53401;SDS011;39295;45.534;20.034;2023-03-14T03:12:12;10.02;;;6.43;;
53401;SDS011;39295;45.534;20.034;2023-03-14T03:14:38;10.68;;;6.80;;
53401;SDS011;39295;45.534;20.034;2023-03-14T03:17:04;9.07;;;6.45;;
53401;SDS011;39295;45.534;20.034;2023-03-14T03:19:30;10.30;;;5.80;;
53401;SDS011;39295;45.534;20.034;2023-03-14T03:22:15;11.05;;;5.95;;
53401;SDS011;39295;45.534;20.034;2023-03-14T03:24:41;11.70;;;6.53;;
53401;SDS011;39295;45.534;20.034;2023-03-14T03:27:07;11.95;;;6.63;;
53401;SDS011;39295;45.534;20.034;2023-03-14T03:29:33;10.32;;;6.68;;
53401;SDS011;39295;45.534;20.034;2023-03-14T03:31:59;10.35;;;6.85;;
53401;SDS011;39295;45.534;20.034;2023-03-14T03:34:25;9.30;;;6.22;;
53401;SDS011;39295;45.534;20.034;2023-03-14T03:36:55;10.73;;;6.45;;
53401;SDS011;39295;45.534;20.034;2023-03-14T03:39:21;9.80;;;5.97;;
53401;SDS011;39295;45.534;20.034;2023-03-14T03:41:47;10.75;;;6.55;;
53401;SDS011;39295;45.534;20.034;2023-03-14T03:44:13;10.38;;;5.95;;
53401;SDS011;39295;45.534;20.034;2023-03-14T03:46:39;8.43;;;6.00;;
53401;SDS011;39295;45.534;20.034;2023-03-14T03:49:05;11.18;;;6.65;;
53401;SDS011;39295;45.534;20.034;2023-03-14T03:51:32;9.32;;;6.20;;
53401;SDS011;39295;45.534;20.034;2023-03-14T03:53:59;12.45;;;6.70;;
53401;SDS011;39295;45.534;20.034;2023-03-14T03:56:25;15.13;;;7.65;;
53401;SDS011;39295;45.534;20.034;2023-03-14T03:58:51;14.90;;;7.05;;
53401;SDS011;39295;45.534;20.034;2023-03-14T04:01:17;11.48;;;6.18;;
53401;SDS011;39295;45.534;20.034;2023-03-14T04:03:43;9.65;;;5.80;;
53401;SDS011;39295;45.534;20.034;2023-03-14T04:06:10;18.00;;;8.75;;
53401;SDS011;39295;45.534;20.034;2023-03-14T04:11:59;20.42;;;9.77;;
53401;SDS011;39295;45.534;20.034;2023-03-14T04:14:25;14.05;;;7.32;;
53401;SDS011;39295;45.534;20.034;2023-03-14T04:16:51;10.02;;;6.20;;
53401;SDS011;39295;45.534;20.034;2023-03-14T04:19:17;8.98;;;5.82;;
53401;SDS011;39295;45.534;20.034;2023-03-14T04:21:43;9.65;;;5.72;;
53401;SDS011;39295;45.534;20.034;2023-03-14T04:24:10;10.52;;;5.68;;
53401;SDS011;39295;45.534;20.034;2023-03-14T04:26:36;10.27;;;5.47;;
53401;SDS011;39295;45.534;20.034;2023-03-14T04:29:02;11.90;;;6.20;;
53401;SDS011;39295;45.534;20.034;2023-03-14T04:31:28;11.57;;;6.30;;
53401;SDS011;39295;45.534;20.034;2023-03-14T04:33:54;13.45;;;7.28;;
53401;SDS011;39295;45.534;20.034;2023-03-14T04:42:28;13.93;;;6.20;;
53401;SDS011;39295;45.534;20.034;2023-03-14T04:44:54;11.00;;;5.95;;
53401;SDS011;39295;45.534;20.034;2023-03-14T04:47:20;11.98;;;6.13;;
53401;SDS011;39295;45.534;20.034;2023-03-14T04:49:46;12.95;;;6.55;;
53401;SDS011;39295;45.534;20.034;2023-03-14T04:55:15;11.82;;;6.53;;
53401;SDS011;39295;45.534;20.034;2023-03-14T04:57:41;15.98;;;6.53;;
53401;SDS011;39295;45.534;20.034;2023-03-14T05:00:07;20.02;;;6.85;;
53401;SDS011;39295;45.534;20.034;2023-03-14T05:02:34;11.35;;;6.85;;
53401;SDS011;39295;45.534;20.034;2023-03-14T05:05:00;17.40;;;7.30;;
53401;SDS011;39295;45.534;20.034;2023-03-14T05:10:30;17.25;;;7.07;;
53401;SDS011;39295;45.534;20.034;2023-03-14T05:12:56;14.25;;;6.95;;
53401;SDS011;39295;45.534;20.034;2023-03-14T05:15:22;12.60;;;6.80;;
53401;SDS011;39295;45.534;20.034;2023-03-14T05:17:48;14.50;;;7.50;;
53401;SDS011;39295;45.534;20.034;2023-03-14T05:20:14;15.63;;;7.47;;
53401;SDS011;39295;45.534;20.034;2023-03-14T05:25:44;17.67;;;8.23;;
53401;SDS011;39295;45.534;20.034;2023-03-14T05:28:10;16.00;;;8.48;;
53401;SDS011;39295;45.534;20.034;2023-03-14T05:30:37;15.82;;;8.07;;
53401;SDS011;39295;45.534;20.034;2023-03-14T05:33:03;14.43;;;7.47;;
53401;SDS011;39295;45.534;20.034;2023-03-14T05:35:29;14.52;;;7.95;;
53401;SDS011;39295;45.534;20.034;2023-03-14T05:40:58;15.85;;;7.82;;
53401;SDS011;39295;45.534;20.034;2023-03-14T05:43:24;16.77;;;8.35;;
53401;SDS011;39295;45.534;20.034;2023-03-14T05:45:50;17.48;;;8.15;;
53401;SDS011;39295;45.534;20.034;2023-03-14T05:48:16;14.75;;;7.10;;
53401;SDS011;39295;45.534;20.034;2023-03-14T05:50:43;16.73;;;8.32;;
53401;SDS011;39295;45.534;20.034;2023-03-14T05:53:27;18.80;;;9.20;;
53401;SDS011;39295;45.534;20.034;2023-03-14T05:55:54;17.70;;;8.48;;
53401;SDS011;39295;45.534;20.034;2023-03-14T05:58:20;16.90;;;8.25;;
53401;SDS011;39295;45.534;20.034;2023-03-14T06:00:47;17.90;;;8.05;;
53401;SDS011;39295;45.534;20.034;2023-03-14T06:03:13;18.00;;;7.80;;
53401;SDS011;39295;45.534;20.034;2023-03-14T06:05:39;11.20;;;6.75;;
53401;SDS011;39295;45.534;20.034;2023-03-14T06:08:06;13.88;;;6.75;;
53401;SDS011;39295;45.534;20.034;2023-03-14T06:10:32;12.95;;;6.82;;
53401;SDS011;39295;45.534;20.034;2023-03-14T06:12:58;14.35;;;6.15;;
53401;SDS011;39295;45.534;20.034;2023-03-14T06:15:24;13.05;;;6.47;;
53401;SDS011;39295;45.534;20.034;2023-03-14T06:17:50;11.25;;;6.47;;
53401;SDS011;39295;45.534;20.034;2023-03-14T06:20:16;13.55;;;6.63;;
53401;SDS011;39295;45.534;20.034;2023-03-14T06:22:42;10.25;;;6.18;;
53401;SDS011;39295;45.534;20.034;2023-03-14T06:25:08;12.02;;;6.15;;
53401;SDS011;39295;45.534;20.034;2023-03-14T06:27:35;16.92;;;8.43;;
53401;SDS011;39295;45.534;20.034;2023-03-14T06:30:01;14.70;;;6.97;;
53401;SDS011;39295;45.534;20.034;2023-03-14T06:32:28;15.25;;;7.53;;
53401;SDS011;39295;45.534;20.034;2023-03-14T06:34:54;16.85;;;7.63;;
53401;SDS011;39295;45.534;20.034;2023-03-14T06:40:20;15.00;;;7.40;;
53401;SDS011;39295;45.534;20.034;2023-03-14T06:42:46;16.00;;;6.47;;
53401;SDS011;39295;45.534;20.034;2023-03-14T06:45:13;17.05;;;7.57;;
53401;SDS011;39295;45.534;20.034;2023-03-14T06:47:39;12.50;;;7.28;;
53401;SDS011;39295;45.534;20.034;2023-03-14T06:50:05;14.10;;;7.47;;
53401;SDS011;39295;45.534;20.034;2023-03-14T06:52:32;13.10;;;6.70;;
53401;SDS011;39295;45.534;20.034;2023-03-14T06:54:58;13.95;;;6.80;;
53401;SDS011;39295;45.534;20.034;2023-03-14T06:57:24;13.13;;;7.03;;
53401;SDS011;39295;45.534;20.034;2023-03-14T06:59:50;11.85;;;6.13;;
53401;SDS011;39295;45.534;20.034;2023-03-14T07:02:16;13.57;;;6.90;;
53401;SDS011;39295;45.534;20.034;2023-03-14T07:04:42;13.73;;;7.30;;
53401;SDS011;39295;45.534;20.034;2023-03-14T07:07:08;14.05;;;7.40;;
53401;SDS011;39295;45.534;20.034;2023-03-14T07:09:34;15.10;;;7.32;;
53401;SDS011;39295;45.534;20.034;2023-03-14T07:12:01;12.25;;;7.40;;
53401;SDS011;39295;45.534;20.034;2023-03-14T07:14:29;17.23;;;8.80;;
53401;SDS011;39295;45.534;20.034;2023-03-14T07:16:55;22.88;;;8.57;;
53401;SDS011;39295;45.534;20.034;2023-03-14T07:19:21;23.95;;;11.27;;
53401;SDS011;39295;45.534;20.034;2023-03-14T07:21:47;27.98;;;12.10;;
53401;SDS011;39295;45.534;20.034;2023-03-14T07:24:13;23.60;;;10.93;;
53401;SDS011;39295;45.534;20.034;2023-03-14T07:26:39;21.75;;;10.40;;
53401;SDS011;39295;45.534;20.034;2023-03-14T07:29:05;23.25;;;11.07;;
53401;SDS011;39295;45.534;20.034;2023-03-14T07:31:31;30.35;;;11.38;;
53401;SDS011;39295;45.534;20.034;2023-03-14T07:33:58;19.48;;;9.90;;
53401;SDS011;39295;45.534;20.034;2023-03-14T07:36:24;25.90;;;12.02;;
53401;SDS011;39295;45.534;20.034;2023-03-14T07:38:50;43.55;;;16.92;;
53401;SDS011;39295;45.534;20.034;2023-03-14T07:41:17;34.08;;;16.00;;
53401;SDS011;39295;45.534;20.034;2023-03-14T07:43:43;39.80;;;17.67;;
53401;SDS011;39295;45.534;20.034;2023-03-14T07:46:09;42.20;;;17.23;;
53401;SDS011;39295;45.534;20.034;2023-03-14T07:48:35;38.92;;;17.48;;
53401;SDS011;39295;45.534;20.034;2023-03-14T07:51:01;31.08;;;14.50;;
53401;SDS011;39295;45.534;20.034;2023-03-14T07:53:27;23.70;;;13.88;;
53401;SDS011;39295;45.534;20.034;2023-03-14T07:55:53;23.65;;;12.15;;
53401;SDS011;39295;45.534;20.034;2023-03-14T07:58:20;16.60;;;8.57;;
53401;SDS011;39295;45.534;20.034;2023-03-14T08:00:50;23.48;;;11.50;;
53401;SDS011;39295;45.534;20.034;2023-03-14T08:03:16;24.55;;;12.80;;
53401;SDS011;39295;45.534;20.034;2023-03-14T08:05:42;32.13;;;16.48;;
53401;SDS011;39295;45.534;20.034;2023-03-14T08:08:09;25.38;;;13.05;;
53401;SDS011;39295;45.534;20.034;2023-03-14T08:10:35;19.15;;;11.23;;
53401;SDS011;39295;45.534;20.034;2023-03-14T08:13:01;23.67;;;11.32;;
53401;SDS011;39295;45.534;20.034;2023-03-14T08:15:28;22.95;;;11.10;;
53401;SDS011;39295;45.534;20.034;2023-03-14T08:17:55;28.60;;;17.13;;
53401;SDS011;39295;45.534;20.034;2023-03-14T08:20:22;19.60;;;10.98;;
53401;SDS011;39295;45.534;20.034;2023-03-14T08:22:48;20.10;;;9.30;;
53401;SDS011;39295;45.534;20.034;2023-03-14T08:25:14;13.77;;;9.10;;
53401;SDS011;39295;45.534;20.034;2023-03-14T08:27:40;18.35;;;9.18;;
53401;SDS011;39295;45.534;20.034;2023-03-14T08:30:10;24.33;;;10.50;;
53401;SDS011;39295;45.534;20.034;2023-03-14T08:32:37;30.63;;;15.13;;
53401;SDS011;39295;45.534;20.034;2023-03-14T08:35:04;40.78;;;19.48;;
53401;SDS011;39295;45.534;20.034;2023-03-14T08:37:33;34.28;;;15.27;;
53401;SDS011;39295;45.534;20.034;2023-03-14T08:40:00;61.88;;;20.13;;
53401;SDS011;39295;45.534;20.034;2023-03-14T08:42:29;67.38;;;22.48;;
53401;SDS011;39295;45.534;20.034;2023-03-14T08:44:55;58.25;;;22.45;;
53401;SDS011;39295;45.534;20.034;2023-03-14T08:47:21;33.63;;;15.07;;
53401;SDS011;39295;45.534;20.034;2023-03-14T08:49:48;54.97;;;23.67;;
53401;SDS011;39295;45.534;20.034;2023-03-14T08:52:14;66.53;;;28.60;;
53401;SDS011;39295;45.534;20.034;2023-03-14T08:54:41;32.08;;;14.07;;
53401;SDS011;39295;45.534;20.034;2023-03-14T08:57:07;22.95;;;11.73;;
53401;SDS011;39295;45.534;20.034;2023-03-14T08:59:33;97.40;;;41.20;;
53401;SDS011;39295;45.534;20.034;2023-03-14T09:01:59;25.17;;;11.55;;
53401;SDS011;39295;45.534;20.034;2023-03-14T09:04:28;33.97;;;14.05;;
53401;SDS011;39295;45.534;20.034;2023-03-14T09:06:54;20.38;;;12.13;;
53401;SDS011;39295;45.534;20.034;2023-03-14T09:11:56;20.45;;;11.32;;
53401;SDS011;39295;45.534;20.034;2023-03-14T09:14:22;22.08;;;10.63;;
53401;SDS011;39295;45.534;20.034;2023-03-14T09:16:49;17.27;;;9.00;;
53401;SDS011;39295;45.534;20.034;2023-03-14T09:19:16;12.60;;;8.13;;
53401;SDS011;39295;45.534;20.034;2023-03-14T09:21:43;15.93;;;7.40;;
53401;SDS011;39295;45.534;20.034;2023-03-14T09:24:09;18.20;;;8.52;;
53401;SDS011;39295;45.534;20.034;2023-03-14T09:26:35;14.82;;;7.50;;
53401;SDS011;39295;45.534;20.034;2023-03-14T09:29:02;14.88;;;7.10;;
53401;SDS011;39295;45.534;20.034;2023-03-14T09:31:28;12.77;;;7.65;;
53401;SDS011;39295;45.534;20.034;2023-03-14T09:33:55;13.30;;;7.53;;
53401;SDS011;39295;45.534;20.034;2023-03-14T09:36:21;16.48;;;7.68;;
53401;SDS011;39295;45.534;20.034;2023-03-14T09:38:47;12.77;;;7.60;;
53401;SDS011;39295;45.534;20.034;2023-03-14T09:41:17;15.60;;;7.55;;
53401;SDS011;39295;45.534;20.034;2023-03-14T09:43:46;13.82;;;8.07;;
53401;SDS011;39295;45.534;20.034;2023-03-14T09:46:17;14.98;;;8.25;;
53401;SDS011;39295;45.534;20.034;2023-03-14T09:48:43;14.38;;;10.23;;
53401;SDS011;39295;45.534;20.034;2023-03-14T09:51:14;12.65;;;8.30;;
53401;SDS011;39295;45.534;20.034;2023-03-14T09:53:41;14.27;;;7.60;;
53401;SDS011;39295;45.534;20.034;2023-03-14T09:56:14;14.65;;;7.32;;
53401;SDS011;39295;45.534;20.034;2023-03-14T09:58:42;13.02;;;7.85;;
53401;SDS011;39295;45.534;20.034;2023-03-14T10:01:11;17.92;;;8.27;;
53401;SDS011;39295;45.534;20.034;2023-03-14T10:03:39;14.95;;;7.25;;
53401;SDS011;39295;45.534;20.034;2023-03-14T10:06:13;20.83;;;7.72;;
53401;SDS011;39295;45.534;20.034;2023-03-14T10:08:40;11.10;;;6.93;;
53401;SDS011;39295;45.534;20.034;2023-03-14T10:11:06;16.40;;;7.60;;
53401;SDS011;39295;45.534;20.034;2023-03-14T10:13:32;14.43;;;8.35;;
53401;SDS011;39295;45.534;20.034;2023-03-14T10:15:59;19.10;;;8.48;;
53401;SDS011;39295;45.534;20.034;2023-03-14T10:18:27;16.15;;;8.48;;
53401;SDS011;39295;45.534;20.034;2023-03-14T10:21:36;18.50;;;8.77;;
53401;SDS011;39295;45.534;20.034;2023-03-14T10:23:43;19.38;;;8.95;;
53401;SDS011;39295;45.534;20.034;2023-03-14T10:26:15;16.15;;;6.90;;
53401;SDS011;39295;45.534;20.034;2023-03-14T10:28:48;16.52;;;8.70;;
53401;SDS011;39295;45.534;20.034;2023-03-14T10:31:16;17.73;;;9.52;;
53401;SDS011;39295;45.534;20.034;2023-03-14T10:33:42;21.13;;;9.07;;
53401;SDS011;39295;45.534;20.034;2023-03-14T10:36:29;15.82;;;7.43;;
53401;SDS011;39295;45.534;20.034;2023-03-14T10:39:39;12.55;;;7.20;;
53401;SDS011;39295;45.534;20.034;2023-03-14T10:41:48;9.20;;;5.20;;
53401;SDS011;39295;45.534;20.034;2023-03-14T10:44:16;14.52;;;5.20;;
53401;SDS011;39295;45.534;20.034;2023-03-14T10:46:45;12.07;;;4.57;;
53401;SDS011;39295;45.534;20.034;2023-03-14T10:49:22;8.80;;;5.22;;
53401;SDS011;39295;45.534;20.034;2023-03-14T10:51:51;9.20;;;5.00;;
53401;SDS011;39295;45.534;20.034;2023-03-14T10:54:21;7.00;;;4.57;;
53401;SDS011;39295;45.534;20.034;2023-03-14T10:56:57;9.75;;;5.03;;
53401;SDS011;39295;45.534;20.034;2023-03-14T10:59:24;11.52;;;5.10;;
53401;SDS011;39295;45.534;20.034;2023-03-14T11:07:04;10.75;;;5.28;;
53401;SDS011;39295;45.534;20.034;2023-03-14T11:14:53;9.93;;;5.07;;
53401;SDS011;39295;45.534;20.034;2023-03-14T11:32:50;11.20;;;4.88;;
53401;SDS011;39295;45.534;20.034;2023-03-14T11:37:52;18.73;;;7.57;;
53401;SDS011;39295;45.534;20.034;2023-03-14T11:42:46;19.60;;;8.40;;
53401;SDS011;39295;45.534;20.034;2023-03-14T11:45:15;16.48;;;8.20;;
53401;SDS011;39295;45.534;20.034;2023-03-14T11:47:42;17.58;;;7.05;;
53401;SDS011;39295;45.534;20.034;2023-03-14T11:50:17;14.20;;;6.82;;
53401;SDS011;39295;45.534;20.034;2023-03-14T11:52:48;19.60;;;9.18;;
53401;SDS011;39295;45.534;20.034;2023-03-14T11:55:19;23.83;;;10.55;;
53401;SDS011;39295;45.534;20.034;2023-03-14T11:57:46;17.38;;;9.05;;
53401;SDS011;39295;45.534;20.034;2023-03-14T12:00:16;13.25;;;6.72;;
53401;SDS011;39295;45.534;20.034;2023-03-14T12:07:57;14.85;;;7.13;;
53401;SDS011;39295;45.534;20.034;2023-03-14T12:10:29;9.57;;;5.22;;
53401;SDS011;39295;45.534;20.034;2023-03-14T12:12:55;9.40;;;5.85;;
53401;SDS011;39295;45.534;20.034;2023-03-14T12:15:21;10.75;;;5.60;;
53401;SDS011;39295;45.534;20.034;2023-03-14T12:17:53;8.73;;;4.88;;
53401;SDS011;39295;45.534;20.034;2023-03-14T12:20:21;15.32;;;5.70;;
53401;SDS011;39295;45.534;20.034;2023-03-14T12:22:49;10.95;;;4.60;;
53401;SDS011;39295;45.534;20.034;2023-03-14T12:25:23;12.57;;;5.85;;
53401;SDS011;39295;45.534;20.034;2023-03-14T12:28:02;15.82;;;5.40;;
53401;SDS011;39295;45.534;20.034;2023-03-14T12:30:39;8.88;;;5.40;;
53401;SDS011;39295;45.534;20.034;2023-03-14T12:35:36;9.90;;;4.40;;
53401;SDS011;39295;45.534;20.034;2023-03-14T12:38:03;12.50;;;6.45;;
53401;SDS011;39295;45.534;20.034;2023-03-14T12:40:35;8.02;;;4.53;;
53401;SDS011;39295;45.534;20.034;2023-03-14T12:43:04;11.05;;;5.72;;
53401;SDS011;39295;45.534;20.034;2023-03-14T12:45:53;14.37;;;7.10;;
53401;SDS011;39295;45.534;20.034;2023-03-14T12:48:30;13.40;;;6.63;;
53401;SDS011;39295;45.534;20.034;2023-03-14T12:51:03;12.55;;;5.70;;
53401;SDS011;39295;45.534;20.034;2023-03-14T12:56:14;20.42;;;6.32;;
53401;SDS011;39295;45.534;20.034;2023-03-14T13:01:30;19.92;;;6.97;;
53401;SDS011;39295;45.534;20.034;2023-03-14T13:03:58;10.55;;;5.22;;
53401;SDS011;39295;45.534;20.034;2023-03-14T13:11:52;15.80;;;5.22;;
53401;SDS011;39295;45.534;20.034;2023-03-14T13:14:19;19.02;;;5.40;;
53401;SDS011;39295;45.534;20.034;2023-03-14T13:16:46;33.00;;;6.07;;
53401;SDS011;39295;45.534;20.034;2023-03-14T13:19:18;15.18;;;4.80;;
53401;SDS011;39295;45.534;20.034;2023-03-14T13:21:45;20.65;;;4.78;;
53401;SDS011;39295;45.534;20.034;2023-03-14T13:24:21;9.70;;;5.00;;
53401;SDS011;39295;45.534;20.034;2023-03-14T13:26:48;13.30;;;5.57;;
53401;SDS011;39295;45.534;20.034;2023-03-14T13:29:15;16.77;;;5.43;;
53401;SDS011;39295;45.534;20.034;2023-03-14T13:31:45;12.65;;;4.65;;
53401;SDS011;39295;45.534;20.034;2023-03-14T13:34:12;16.23;;;5.10;;
53401;SDS011;39295;45.534;20.034;2023-03-14T13:36:38;18.63;;;5.03;;
53401;SDS011;39295;45.534;20.034;2023-03-14T13:39:06;23.55;;;5.82;;
53401;SDS011;39295;45.534;20.034;2023-03-14T13:41:41;15.13;;;6.63;;
53401;SDS011;39295;45.534;20.034;2023-03-14T13:44:08;16.23;;;6.60;;
53401;SDS011;39295;45.534;20.034;2023-03-14T13:46:39;18.90;;;6.93;;
53401;SDS011;39295;45.534;20.034;2023-03-14T13:49:06;11.95;;;5.60;;
53401;SDS011;39295;45.534;20.034;2023-03-14T13:51:36;10.70;;;5.90;;
53401;SDS011;39295;45.534;20.034;2023-03-14T13:54:11;13.88;;;6.30;;
53401;SDS011;39295;45.534;20.034;2023-03-14T13:56:38;18.77;;;7.57;;
53401;SDS011;39295;45.534;20.034;2023-03-14T13:59:04;22.70;;;6.63;;
53401;SDS011;39295;45.534;20.034;2023-03-14T14:01:31;17.20;;;7.80;;
53401;SDS011;39295;45.534;20.034;2023-03-14T14:04:02;11.10;;;6.10;;
53401;SDS011;39295;45.534;20.034;2023-03-14T14:06:32;14.35;;;6.45;;
53401;SDS011;39295;45.534;20.034;2023-03-14T14:08:59;14.15;;;6.85;;
53401;SDS011;39295;45.534;20.034;2023-03-14T14:11:42;18.00;;;7.90;;
53401;SDS011;39295;45.534;20.034;2023-03-14T14:14:19;13.33;;;7.40;;
53401;SDS011;39295;45.534;20.034;2023-03-14T14:16:47;12.70;;;7.78;;
53401;SDS011;39295;45.534;20.034;2023-03-14T14:19:13;15.77;;;8.63;;
53401;SDS011;39295;45.534;20.034;2023-03-14T14:21:40;17.00;;;8.68;;
53401;SDS011;39295;45.534;20.034;2023-03-14T14:24:08;12.95;;;6.68;;
53401;SDS011;39295;45.534;20.034;2023-03-14T14:26:35;14.15;;;8.00;;
53401;SDS011;39295;45.534;20.034;2023-03-14T14:29:05;18.08;;;9.05;;
53401;SDS011;39295;45.534;20.034;2023-03-14T14:31:31;13.02;;;6.97;;
53401;SDS011;39295;45.534;20.034;2023-03-14T14:36:28;15.75;;;5.90;;
53401;SDS011;39295;45.534;20.034;2023-03-14T14:39:05;11.10;;;6.45;;
53401;SDS011;39295;45.534;20.034;2023-03-14T14:41:39;9.45;;;5.72;;
53401;SDS011;39295;45.534;20.034;2023-03-14T14:44:05;7.43;;;5.20;;
53401;SDS011;39295;45.534;20.034;2023-03-14T14:46:32;10.90;;;6.57;;
53401;SDS011;39295;45.534;20.034;2023-03-14T14:49:02;17.73;;;7.78;;
53401;SDS011;39295;45.534;20.034;2023-03-14T14:51:33;14.82;;;5.93;;
53401;SDS011;39295;45.534;20.034;2023-03-14T14:54:01;11.20;;;5.72;;
53401;SDS011;39295;45.534;20.034;2023-03-14T14:56:34;10.77;;;6.03;;
53401;SDS011;39295;45.534;20.034;2023-03-14T14:59:01;12.68;;;6.70;;
53401;SDS011;39295;45.534;20.034;2023-03-14T15:01:37;14.95;;;6.70;;
53401;SDS011;39295;45.534;20.034;2023-03-14T15:04:13;17.48;;;9.35;;
53401;SDS011;39295;45.534;20.034;2023-03-14T15:06:43;18.33;;;8.20;;
53401;SDS011;39295;45.534;20.034;2023-03-14T15:09:13;14.80;;;6.95;;
53401;SDS011;39295;45.534;20.034;2023-03-14T15:11:41;19.13;;;7.97;;
53401;SDS011;39295;45.534;20.034;2023-03-14T15:14:07;13.65;;;7.90;;
53401;SDS011;39295;45.534;20.034;2023-03-14T15:16:33;13.20;;;6.47;;
53401;SDS011;39295;45.534;20.034;2023-03-14T15:19:00;12.48;;;6.55;;
53401;SDS011;39295;45.534;20.034;2023-03-14T15:21:27;15.40;;;8.32;;
53401;SDS011;39295;45.534;20.034;2023-03-14T15:23:54;14.43;;;7.45;;
53401;SDS011;39295;45.534;20.034;2023-03-14T15:26:21;23.98;;;8.93;;
53401;SDS011;39295;45.534;20.034;2023-03-14T15:28:47;13.27;;;7.43;;
53401;SDS011;39295;45.534;20.034;2023-03-14T15:31:14;16.85;;;8.15;;
53401;SDS011;39295;45.534;20.034;2023-03-14T15:33:41;15.13;;;9.02;;
53401;SDS011;39295;45.534;20.034;2023-03-14T15:39:07;24.35;;;12.13;;
53401;SDS011;39295;45.534;20.034;2023-03-14T15:41:33;20.85;;;12.00;;
53401;SDS011;39295;45.534;20.034;2023-03-14T15:43:59;19.45;;;10.93;;
53401;SDS011;39295;45.534;20.034;2023-03-14T15:46:25;21.42;;;11.90;;
53401;SDS011;39295;45.534;20.034;2023-03-14T15:48:51;27.08;;;13.43;;
53401;SDS011;39295;45.534;20.034;2023-03-14T15:51:18;28.58;;;13.40;;
53401;SDS011;39295;45.534;20.034;2023-03-14T15:53:44;28.05;;;13.85;;
53401;SDS011;39295;45.534;20.034;2023-03-14T15:56:12;20.77;;;11.82;;
53401;SDS011;39295;45.534;20.034;2023-03-14T15:58:38;26.73;;;13.27;;
53401;SDS011;39295;45.534;20.034;2023-03-14T16:01:05;23.40;;;11.98;;
53401;SDS011;39295;45.534;20.034;2023-03-14T16:03:34;26.17;;;13.05;;
53401;SDS011;39295;45.534;20.034;2023-03-14T16:06:00;23.77;;;11.45;;
53401;SDS011;39295;45.534;20.034;2023-03-14T16:08:27;19.05;;;10.43;;
53401;SDS011;39295;45.534;20.034;2023-03-14T16:10:54;18.20;;;10.35;;
53401;SDS011;39295;45.534;20.034;2023-03-14T16:13:21;18.48;;;10.77;;
53401;SDS011;39295;45.534;20.034;2023-03-14T16:16:00;13.50;;;7.55;;